Time;durP1;ratioP1;P1;durP2;ratioP2;P2;SDS_P1;SDS_P2;PMS_P1;PMS_P2;Temp;Humidity;BMP_temperature;BMP_pressure;BME280_temperature;BME280_humidity;BME280_pressure;Samples;Min_cycle;Max_cycle;Signal;HPM_P1;HPM_P2
2023/07/27 00:00:05;;;;;;;7.10;3.83;;;512.90;2380.80;;;;;;5072370;28;20510;-83
2023/07/27 00:02:31;;;;;;;5.93;4.00;;;512.90;2380.80;;;;;;5073266;28;20032;-83
2023/07/27 00:04:57;;;;;;;5.35;4.05;;;512.90;2380.80;;;;;;5078209;28;20025;-84
2023/07/27 00:07:24;;;;;;;6.78;4.10;;;512.80;2380.80;;;;;;5113490;28;20460;-83
2023/07/27 00:09:50;;;;;;;7.40;4.20;;;512.80;2380.80;;;;;;5113602;28;20047;-83
2023/07/27 00:12:15;;;;;;;7.47;4.10;;;512.80;2380.80;;;;;;5099842;28;20090;-85
2023/07/27 00:14:41;;;;;;;6.88;4.45;;;512.80;2380.80;;;;;;5093543;28;20024;-83
2023/07/27 00:17:07;;;;;;;5.38;3.90;;;512.80;2380.80;;;;;;5077914;28;20035;-83
2023/07/27 00:19:33;;;;;;;6.07;4.07;;;512.80;2380.80;;;;;;5093416;28;20074;-84
2023/07/27 00:21:59;;;;;;;6.55;3.60;;;512.70;2380.80;;;;;;5077503;28;20039;-83
2023/07/27 00:24:24;;;;;;;5.85;4.18;;;512.80;2380.80;;;;;;5093419;28;20031;-83
2023/07/27 00:26:50;;;;;;;6.95;3.70;;;512.50;2380.80;;;;;;5093176;28;20448;-84
2023/07/27 00:29:16;;;;;;;7.47;4.22;;;512.40;2380.80;;;;;;5093454;28;20025;-84
2023/07/27 00:31:42;;;;;;;4.60;3.70;;;512.40;2380.80;;;;;;5077743;28;20112;-83
2023/07/27 00:34:07;;;;;;;5.75;3.90;;;512.40;2380.80;;;;;;5093503;28;20450;-84
2023/07/27 00:36:33;;;;;;;5.70;3.83;;;512.40;2380.80;;;;;;5093611;28;20436;-83
2023/07/27 00:38:59;;;;;;;4.18;3.63;;;512.50;2380.80;;;;;;5093606;28;20078;-84
2023/07/27 00:41:25;;;;;;;6.03;4.00;;;512.50;2380.80;;;;;;5093323;28;20428;-82
2023/07/27 00:43:50;;;;;;;11.30;4.47;;;512.40;2380.80;;;;;;5093527;28;20074;-82
2023/07/27 00:46:16;;;;;;;6.03;3.90;;;512.40;2380.80;;;;;;5080001;28;20086;-83
2023/07/27 00:48:42;;;;;;;4.70;3.88;;;512.30;2380.80;;;;;;5075839;28;20456;-82
2023/07/27 00:51:09;;;;;;;6.88;3.90;;;512.30;2380.80;;;;;;5076908;28;20071;-82
2023/07/27 00:53:35;;;;;;;5.82;3.83;;;512.40;2380.80;;;;;;5076183;28;20025;-84
2023/07/27 00:56:02;;;;;;;5.38;3.72;;;512.30;2380.80;;;;;;5075758;28;20381;-84
2023/07/27 00:58:28;;;;;;;5.22;3.85;;;537.70;2406.40;;;;;;5093257;28;20055;-83
2023/07/27 01:00:54;;;;;;;4.75;4.05;;;512.40;2380.80;;;;;;5113295;28;20483;-83
2023/07/27 01:03:20;;;;;;;7.13;3.70;;;512.40;2380.80;;;;;;5112875;28;20028;-82
2023/07/27 01:05:46;;;;;;;4.75;3.78;;;512.20;2380.80;;;;;;5112957;28;20043;-86
2023/07/27 01:08:12;;;;;;;4.57;3.90;;;512.10;2380.80;;;;;;5112772;28;20024;-83
2023/07/27 01:10:52;;;;;;;6.78;4.32;;;512.10;2380.80;;;;;;5112897;28;20048;-83
2023/07/27 01:13:31;;;;;;;7.00;4.30;;;512.20;2380.80;;;;;;5112730;28;20038;-83
2023/07/27 01:16:02;;;;;;;6.30;3.83;;;512.10;2380.80;;;;;;5112734;28;20024;-82
2023/07/27 01:18:51;;;;;;;4.20;3.75;;;512.00;2380.80;;;;;;5112815;28;20028;-82
2023/07/27 01:21:22;;;;;;;5.13;3.45;;;512.00;2380.80;;;;;;5113133;28;20472;-84
2023/07/27 01:24:17;;;;;;;4.65;3.70;;;512.00;2380.80;;;;;;5112665;28;20024;-83
2023/07/27 01:26:57;;;;;;;5.05;4.13;;;512.00;2380.80;;;;;;5112631;28;20024;-82
2023/07/27 01:29:31;;;;;;;7.50;3.90;;;487.30;2380.80;;;;;;5096702;28;20042;-82
2023/07/27 01:31:57;;;;;;;4.93;3.72;;;487.30;2380.80;;;;;;5112680;28;20028;-82
2023/07/27 01:34:31;;;;;;;5.45;3.90;;;487.30;2380.80;;;;;;5112690;28;20046;-84
2023/07/27 01:37:03;;;;;;;6.13;3.70;;;487.20;2380.80;;;;;;5112408;28;20438;-83
2023/07/27 01:39:35;;;;;;;5.38;3.33;;;487.20;2380.80;;;;;;5096650;28;20024;-83
2023/07/27 01:42:02;;;;;;;6.10;3.40;;;487.30;2380.80;;;;;;5112690;28;20028;-83
2023/07/27 01:44:31;;;;;;;5.05;3.60;;;487.20;2380.80;;;;;;5112033;28;20027;-84
2023/07/27 01:46:58;;;;;;;4.55;3.47;;;487.10;2380.80;;;;;;5112481;28;20123;-84
2023/07/27 01:49:24;;;;;;;4.47;3.40;;;487.10;2380.80;;;;;;5112430;28;20058;-82
2023/07/27 01:51:50;;;;;;;5.85;3.90;;;487.10;2380.80;;;;;;5113293;28;20047;-82
2023/07/27 01:54:18;;;;;;;5.85;3.63;;;487.10;2380.80;;;;;;5122813;28;20028;-81
2023/07/27 01:56:45;;;;;;;4.55;3.33;;;487.10;2380.80;;;;;;5116465;28;20032;-83
2023/07/27 01:59:12;;;;;;;5.53;4.40;;;487.00;2380.80;;;;;;5111872;28;20021;-84
2023/07/27 02:01:42;;;;;;;4.25;3.20;;;487.00;2380.80;;;;;;5111915;28;20025;-84
2023/07/27 02:04:09;;;;;;;5.82;3.40;;;487.10;2380.80;;;;;;5111678;28;20052;-83
2023/07/27 02:06:34;;;;;;;7.05;3.42;;;487.10;2380.80;;;;;;5111627;28;20024;-84
2023/07/27 02:09:00;;;;;;;4.10;3.15;;;487.00;2380.80;;;;;;5094993;28;20024;-84
2023/07/27 02:11:27;;;;;;;6.72;3.55;;;486.90;2380.80;;;;;;5094661;28;20418;-83
2023/07/27 02:14:22;;;;;;;5.78;3.40;;;487.00;2380.80;;;;;;5094863;28;20024;-84
2023/07/27 02:16:55;;;;;;;5.13;3.45;;;486.90;2380.80;;;;;;5094911;28;20032;-82
2023/07/27 02:19:31;;;;;;;4.03;2.92;;;486.90;2380.80;;;;;;5094335;28;20070;-83
2023/07/27 02:21:58;;;;;;;5.10;3.67;;;486.80;2380.80;;;;;;5094664;28;20024;-84
2023/07/27 02:24:25;;;;;;;5.55;3.65;;;486.80;2380.80;;;;;;5094347;28;20028;-83
2023/07/27 02:26:51;;;;;;;7.15;3.35;;;486.80;2380.80;;;;;;5093600;28;20364;-85
2023/07/27 02:29:17;;;;;;;4.88;3.70;;;486.80;2380.80;;;;;;5094526;28;20028;-84
2023/07/27 02:31:43;;;;;;;4.65;3.50;;;486.80;2380.80;;;;;;5094537;28;20028;-84
2023/07/27 02:34:09;;;;;;;8.02;3.70;;;486.80;2380.80;;;;;;5094454;28;20578;-83
2023/07/27 02:36:34;;;;;;;4.75;3.78;;;486.80;2380.80;;;;;;5093944;28;20533;-84
2023/07/27 02:39:00;;;;;;;4.43;3.28;;;486.80;2380.80;;;;;;5093930;28;20027;-85
2023/07/27 02:41:26;;;;;;;3.75;3.03;;;486.70;2380.80;;;;;;5095394;28;20040;-85
2023/07/27 02:43:52;;;;;;;6.28;3.40;;;486.80;2380.80;;;;;;5093981;28;20028;-83
2023/07/27 02:46:18;;;;;;;4.35;3.22;;;486.70;2380.80;;;;;;5093886;28;20115;-85
2023/07/27 02:48:43;;;;;;;4.70;3.17;;;486.70;2380.80;;;;;;5094101;28;20464;-84
2023/07/27 02:51:09;;;;;;;4.55;3.25;;;486.70;2380.80;;;;;;5093787;28;20063;-84
2023/07/27 02:53:35;;;;;;;4.60;3.38;;;486.70;2380.80;;;;;;5108241;28;20020;-84
2023/07/27 02:56:03;;;;;;;7.07;3.35;;;486.70;2380.80;;;;;;5113454;28;20027;-83
2023/07/27 02:58:29;;;;;;;4.72;3.30;;;486.60;2380.80;;;;;;5099472;28;20028;-84
2023/07/27 03:00:55;;;;;;;5.63;3.25;;;;;;;;;;5099126;28;20384;-85
2023/07/27 03:03:22;;;;;;;4.28;3.22;;;486.60;2380.80;;;;;;5093778;28;20093;-84
2023/07/27 03:05:48;;;;;;;4.15;3.00;;;;;;;;;;5094663;28;20062;-82
2023/07/27 03:08:14;;;;;;;4.55;3.15;;;;;;;;;;5092740;28;20081;-86
2023/07/27 03:10:41;;;;;;;6.50;3.35;;;;;;;;;;5094658;28;20051;-84
2023/07/27 03:13:07;;;;;;;4.50;3.42;;;;;;;;;;5091694;28;20112;-83
2023/07/27 03:15:39;;;;;;;4.97;3.65;;;;;;;;;;5109718;28;20072;-83
2023/07/27 03:18:05;;;;;;;5.45;3.40;;;;;;;;;;5110394;28;20067;-83
2023/07/27 03:20:37;;;;;;;4.80;3.00;;;;;;;;;;5110110;28;20543;-84
2023/07/27 03:23:03;;;;;;;;;;;486.60;2380.80;;;;;;5110439;28;20032;-84
2023/07/27 03:25:33;;;;;;;6.63;3.13;;;486.50;2380.80;;;;;;5094457;28;19907;-83
2023/07/27 03:27:59;;;;;;;6.60;3.53;;;486.50;2380.80;;;;;;5109941;28;20024;-81
2023/07/27 03:30:25;;;;;;;5.40;3.60;;;486.50;2380.80;;;;;;5094269;28;20430;-87
2023/07/27 03:32:51;;;;;;;7.18;3.67;;;486.50;2380.80;;;;;;5109771;28;20028;-85
2023/07/27 03:35:16;;;;;;;3.92;3.05;;;486.40;2380.80;;;;;;5093963;28;20040;-84
2023/07/27 03:37:42;;;;;;;4.40;3.60;;;486.40;2380.80;;;;;;5109971;28;20063;-86
2023/07/27 03:40:08;;;;;;;4.93;3.17;;;486.50;2380.80;;;;;;5094378;28;20047;-83
2023/07/27 03:42:34;;;;;;;7.30;3.50;;;486.90;2380.80;;;;;;5109773;28;20035;-83
2023/07/27 03:45:00;;;;;;;5.78;3.70;;;486.60;2380.80;;;;;;5097957;28;20036;-83
2023/07/27 03:47:26;;;;;;;5.65;3.30;;;486.60;2380.80;;;;;;5072889;28;20074;-84
2023/07/27 03:49:51;;;;;;;5.97;3.67;;;486.60;2380.80;;;;;;5072738;28;20369;-84
2023/07/27 03:52:17;;;;;;;6.25;3.42;;;486.60;2380.80;;;;;;5072680;28;20055;-83
2023/07/27 03:54:43;;;;;;;7.82;2.70;;;486.50;2380.80;;;;;;5073721;28;20024;-83
2023/07/27 03:57:09;;;;;;;5.13;2.60;;;486.50;2380.80;;;;;;5072517;28;20067;-82
2023/07/27 03:59:34;;;;;;;4.28;2.67;;;486.50;2380.80;;;;;;5072446;28;20358;-82
2023/07/27 04:02:00;;;;;;;5.53;2.35;;;486.50;2380.80;;;;;;5072788;28;20084;-84
2023/07/27 04:04:26;;;;;;;7.30;2.60;;;486.50;2380.80;;;;;;5072354;28;20025;-83
2023/07/27 04:06:51;;;;;;;4.55;2.53;;;486.40;2380.80;;;;;;5088570;28;20030;-85
2023/07/27 04:09:17;;;;;;;8.07;2.22;;;461.70;2380.80;;;;;;5109491;28;20472;-84
2023/07/27 04:11:43;;;;;;;4.53;2.30;;;486.40;2380.80;;;;;;5093848;28;20082;-84
2023/07/27 04:14:09;;;;;;;3.97;2.22;;;486.40;2380.80;;;;;;5109453;28;20040;-82
2023/07/27 04:16:36;;;;;;;4.05;2.30;;;486.40;2380.80;;;;;;5109647;28;20114;-83
2023/07/27 04:19:02;;;;;;;4.32;2.35;;;486.50;2380.80;;;;;;5093766;28;20020;-84
2023/07/27 04:21:27;;;;;;;4.90;2.40;;;486.50;2380.80;;;;;;5109605;28;20468;-83
2023/07/27 04:23:54;;;;;;;5.50;2.33;;;486.60;2380.80;;;;;;5109878;28;20024;-84
2023/07/27 04:26:20;;;;;;;5.82;2.53;;;486.40;2380.80;;;;;;5109262;28;20426;-82
2023/07/27 04:28:46;;;;;;;4.68;2.15;;;486.50;2380.80;;;;;;5093956;28;20035;-83
2023/07/27 04:31:11;;;;;;;5.28;2.38;;;486.50;2380.80;;;;;;5108898;28;20042;-85
2023/07/27 04:33:37;;;;;;;4.28;2.35;;;486.50;2380.80;;;;;;5109652;28;20056;-84
2023/07/27 04:36:03;;;;;;;7.57;2.70;;;486.50;2380.80;;;;;;5109574;28;20085;-84
2023/07/27 04:38:29;;;;;;;7.47;2.17;;;486.40;2380.80;;;;;;5093519;28;20035;-86
2023/07/27 04:40:55;;;;;;;6.85;2.47;;;486.40;2380.80;;;;;;5093570;28;20028;-82
2023/07/27 04:43:20;;;;;;;3.50;2.30;;;461.70;2380.80;;;;;;5109454;28;20021;-82
2023/07/27 04:45:46;;;;;;;6.78;2.83;;;461.70;2380.80;;;;;;5109349;28;20058;-84
2023/07/27 04:48:12;;;;;;;5.07;2.40;;;461.70;2380.80;;;;;;5109570;28;20028;-84
2023/07/27 04:50:38;;;;;;;5.25;2.63;;;461.70;2380.80;;;;;;5113476;28;20035;-84
2023/07/27 04:53:04;;;;;;;4.28;2.70;;;461.70;2380.80;;;;;;5113110;28;20028;-84
2023/07/27 04:55:29;;;;;;;7.03;3.15;;;461.70;2380.80;;;;;;5113100;28;20032;-85
2023/07/27 04:57:55;;;;;;;6.15;2.58;;;461.70;2380.80;;;;;;5113219;28;20027;-84
2023/07/27 05:00:21;;;;;;;4.38;2.42;;;461.70;2380.80;;;;;;5112950;28;20085;-84
2023/07/27 05:02:47;;;;;;;4.93;2.30;;;461.70;2380.80;;;;;;5113320;28;20028;-83
2023/07/27 05:05:13;;;;;;;6.20;2.78;;;486.40;2380.80;;;;;;5113194;28;20024;-83
2023/07/27 05:07:38;;;;;;;4.53;2.70;;;486.40;2380.80;;;;;;5113014;28;20024;-86
2023/07/27 05:10:04;;;;;;;6.90;2.90;;;486.40;2380.80;;;;;;5112764;28;20050;-83
2023/07/27 05:12:32;;;;;;;4.40;2.80;;;486.50;2380.80;;;;;;5112728;28;20077;-83
2023/07/27 05:14:59;;;;;;;4.63;2.72;;;486.60;2380.80;;;;;;5112728;28;20028;-81
2023/07/27 05:17:24;;;;;;;5.78;3.22;;;486.60;2380.80;;;;;;5112918;28;20035;-82
2023/07/27 05:19:53;;;;;;;8.82;3.38;;;486.60;2380.80;;;;;;5112782;28;20028;-84
2023/07/27 05:22:19;;;;;;;6.72;3.03;;;486.70;2380.80;;;;;;5112666;28;20120;-82
2023/07/27 05:24:44;;;;;;;4.72;2.97;;;486.70;2380.80;;;;;;5112779;28;20024;-83
2023/07/27 05:27:10;;;;;;;6.93;3.30;;;486.70;2380.80;;;;;;5112415;28;20039;-85
2023/07/27 05:29:37;;;;;;;6.35;3.30;;;486.70;2380.80;;;;;;5112504;28;20028;-84
2023/07/27 05:32:03;;;;;;;5.03;2.80;;;486.70;2380.80;;;;;;5112444;28;20115;-85
2023/07/27 05:34:29;;;;;;;5.78;3.15;;;486.80;2380.80;;;;;;5112116;28;20046;-84
2023/07/27 05:36:55;;;;;;;7.25;3.88;;;487.00;2380.80;;;;;;5112658;28;20468;-84
2023/07/27 05:39:21;;;;;;;6.43;3.17;;;487.00;2380.80;;;;;;5113379;28;20035;-85
2023/07/27 05:41:46;;;;;;;6.15;3.05;;;487.10;2380.80;;;;;;5112222;28;20062;-84
2023/07/27 05:44:12;;;;;;;4.57;3.10;;;487.20;2380.80;;;;;;5112677;28;20483;-84
2023/07/27 05:46:38;;;;;;;6.57;3.70;;;487.30;2380.80;;;;;;5096617;28;20467;-84
2023/07/27 05:49:05;;;;;;;7.57;3.50;;;512.00;2380.80;;;;;;5095962;28;20043;-85
2023/07/27 05:51:31;;;;;;;7.75;3.40;;;512.10;2380.80;;;;;;5112080;28;20043;-82
2023/07/27 05:53:57;;;;;;;5.53;3.50;;;512.40;2380.80;;;;;;5112185;28;20036;-84
2023/07/27 05:56:23;;;;;;;6.95;4.13;;;512.30;2380.80;;;;;;5111892;28;20035;-83
2023/07/27 05:58:48;;;;;;;5.60;4.32;;;512.50;2380.80;;;;;;5096181;28;20028;-83
2023/07/27 06:01:16;;;;;;;5.30;3.92;;;;;;;;;;5110391;28;20027;-83
2023/07/27 06:03:42;;;;;;;5.55;4.38;;;;;;;;;;5111631;28;20372;-83
2023/07/27 06:06:08;;;;;;;9.30;6.32;;;;;;;;;;5112057;28;20025;-85
2023/07/27 06:08:34;;;;;;;7.45;6.15;;;;;;;;;;5111867;28;20016;-84
2023/07/27 06:11:06;;;;;;;7.72;5.22;;;;;;;;;;5111363;28;20048;-83
2023/07/27 06:13:32;;;;;;;6.97;4.77;;;;;;;;;;5111997;28;20028;-84
2023/07/27 06:15:58;;;;;;;8.98;5.80;;;;;;;;;;5111681;28;20047;-82
2023/07/27 06:18:25;;;;;;;8.27;5.60;;;;;;;;;;5096296;28;20460;-84
2023/07/27 06:20:51;;;;;;;9.48;7.15;;;;;;;;;;5135831;27;20020;-84
2023/07/27 06:23:17;;;;;;;8.70;5.65;;;;;;;;;;5124240;27;20028;-86
2023/07/27 06:25:44;;;;;;;9.55;6.00;;;;;;;;;;5100058;28;20487;-84
2023/07/27 06:28:10;;;;;;;6.35;5.63;;;;;;;;;;5094773;28;20032;-82
2023/07/27 06:30:37;;;;;;;11.07;5.78;;;;;;;;;;5095298;28;20023;-83
2023/07/27 06:33:03;;;;;;;8.68;6.13;;;;;;;;;;5111681;28;20379;-82
2023/07/27 06:35:29;;;;;;;7.38;6.57;;;;;;;;;;5111355;28;20399;-83
2023/07/27 06:37:55;;;;;;;10.77;6.70;;;;;;;;;;5111160;28;20016;-83
2023/07/27 06:40:21;;;;;;;7.63;6.68;;;;;;;;;;5111131;28;20150;-83
2023/07/27 06:42:47;;;;;;;6.32;5.65;;;;;;;;;;5111055;28;20081;-85
2023/07/27 06:45:13;;;;;;;7.22;5.80;;;487.10;2380.80;;;;;;5105578;28;20451;-83
2023/07/27 06:47:39;;;;;;;6.45;5.15;;;;;;;;;;5110256;28;20111;-83
2023/07/27 06:50:06;;;;;;;5.78;5.18;;;;;;;;;;5110511;28;20024;-83
2023/07/27 06:52:33;;;;;;;9.23;5.47;;;;;;;;;;5110152;28;20371;-83
2023/07/27 06:54:59;;;;;;;6.75;5.32;;;;;;;;;;5110759;28;20024;-83
2023/07/27 06:57:25;;;;;;;7.88;5.50;;;;;;;;;;5101649;28;20044;-83
2023/07/27 06:59:51;;;;;;;6.50;5.20;;;;;;;;;;5073432;28;20036;-83
2023/07/27 07:02:18;;;;;;;6.80;5.28;;;;;;;;;;5074733;28;20028;-82
2023/07/27 07:04:45;;;;;;;6.28;5.28;;;;;;;;;;5073429;28;20059;-83
2023/07/27 07:07:11;;;;;;;5.95;5.18;;;512.70;2380.80;;;;;;5073108;28;20077;-82
2023/07/27 07:09:38;;;;;;;6.32;5.40;;;512.60;2380.80;;;;;;5072973;28;20403;-83
2023/07/27 07:12:05;;;;;;;7.57;5.22;;;512.10;2380.80;;;;;;5072953;28;20177;-81
2023/07/27 07:14:31;;;;;;;6.25;4.90;;;;;;;;;;5073437;28;20400;-82
2023/07/27 07:16:58;;;;;;;6.93;5.43;;;;;;;;;;5073398;28;20119;-82
2023/07/27 07:19:24;;;;;;;9.95;6.82;;;;;;;;;;5078275;28;20472;-81
2023/07/27 07:21:50;;;;;;;9.55;5.63;;;;;;;;;;5081210;28;20029;-82
2023/07/27 07:24:15;;;;;;;10.77;5.10;;;537.60;2406.40;;;;;;5072867;28;20044;-82
2023/07/27 07:26:41;;;;;;;6.72;5.00;;;512.90;2380.80;;;;;;5072886;28;20136;-82
2023/07/27 07:29:08;;;;;;;9.18;7.22;;;;;;;;;;5072820;28;20028;-82
2023/07/27 07:31:34;;;;;;;10.43;7.95;;;537.80;2406.40;;;;;;5072330;28;20024;-82
2023/07/27 07:33:59;;;;;;;8.07;6.15;;;537.60;2406.40;;;;;;5072710;28;20123;-82
2023/07/27 07:36:25;;;;;;;10.90;8.15;;;537.70;2406.40;;;;;;5072827;28;20024;-82
2023/07/27 07:38:51;;;;;;;7.07;6.03;;;537.90;2406.40;;;;;;5073261;28;20052;-81
2023/07/27 07:41:18;;;;;;;7.68;5.13;;;537.90;2406.40;;;;;;5072487;28;20034;-83
2023/07/27 07:43:43;;;;;;;7.72;4.70;;;538.10;2406.40;;;;;;5072677;28;20020;-84
2023/07/27 07:46:13;;;;;;;6.82;5.40;;;538.20;2406.40;;;;;;5072574;28;20035;-80
2023/07/27 07:48:39;;;;;;;8.35;5.50;;;538.10;2406.40;;;;;;5073527;28;20025;-81
2023/07/27 07:51:12;;;;;;;6.50;4.85;;;538.10;2406.40;;;;;;5072766;28;20043;-80
2023/07/27 07:53:38;;;;;;;6.95;5.18;;;538.40;2406.40;;;;;;5073780;28;20028;-81
2023/07/27 07:56:05;;;;;;;5.85;4.95;;;538.20;2406.40;;;;;;5074014;28;20025;-82
2023/07/27 07:58:31;;;;;;;5.65;4.55;;;538.30;2406.40;;;;;;5072911;28;20035;-82
2023/07/27 08:00:57;;;;;;;8.93;5.13;;;538.50;2406.40;;;;;;5073026;28;20028;-82
2023/07/27 08:03:23;;;;;;;8.32;4.68;;;563.20;2432.00;;;;;;5073179;28;20380;-83
2023/07/27 08:05:49;;;;;;;5.50;4.82;;;;;;;;;;5089760;28;20040;-83
2023/07/27 08:08:15;;;;;;;9.55;5.00;;;;;;;;;;5073740;28;20483;-82
2023/07/27 08:10:41;;;;;;;7.13;4.90;;;;;;;;;;5074165;28;20134;-83
2023/07/27 08:13:07;;;;;;;8.55;4.88;;;;;;;;;;5075684;28;20507;-82
2023/07/27 08:15:33;;;;;;;6.22;4.55;;;563.50;2432.00;;;;;;5074138;28;20078;-82
2023/07/27 08:17:59;;;;;;;5.35;4.47;;;;;;;;;;5074078;28;20032;-82
2023/07/27 08:20:25;;;;;;;6.43;4.53;;;563.80;2432.00;;;;;;5072871;28;20465;-82
2023/07/27 08:22:51;;;;;;;5.75;5.13;;;563.70;2432.00;;;;;;5073623;28;20108;-84
2023/07/27 08:25:17;;;;;;;6.35;5.05;;;;;;;;;;5076477;28;20021;-83
2023/07/27 08:27:44;;;;;;;5.40;4.85;;;;;;;;;;5076437;28;20025;-83
2023/07/27 08:30:10;;;;;;;7.28;4.80;;;564.10;2432.00;;;;;;5076579;28;20489;-83
2023/07/27 08:32:37;;;;;;;5.53;3.78;;;;;;;;;;5076657;28;20024;-82
2023/07/27 08:35:03;;;;;;;5.30;4.30;;;588.80;2432.00;;;;;;5076391;28;20032;-82
2023/07/27 08:37:28;;;;;;;6.22;3.83;;;564.10;2432.00;;;;;;5077758;28;20111;-83
2023/07/27 08:39:55;;;;;;;6.20;3.97;;;;;;;;;;5095785;28;20541;-82
2023/07/27 08:42:21;;;;;;;5.18;4.28;;;;;;;;;;5096456;28;20039;-83
2023/07/27 08:44:47;;;;;;;5.72;4.07;;;589.40;2329.60;;;;;;5097783;28;20098;-84
2023/07/27 08:47:14;;;;;;;12.10;4.40;;;589.20;2329.60;;;;;;5096749;28;20028;-84
2023/07/27 08:49:42;;;;;;;5.35;4.40;;;589.20;2278.40;;;;;;5097040;28;20039;-82
2023/07/27 08:52:10;;;;;;;9.90;4.38;;;589.10;2329.60;;;;;;5097828;28;20475;-85
2023/07/27 08:54:36;;;;;;;10.52;4.30;;;589.00;2304.00;;;;;;5097590;28;20455;-83
2023/07/27 08:57:02;;;;;;;6.63;4.57;;;589.00;2329.60;;;;;;5095885;28;20089;-83
2023/07/27 08:59:29;;;;;;;5.05;3.90;;;589.10;2355.20;;;;;;5096843;28;20028;-84
2023/07/27 09:01:54;;;;;;;5.47;3.90;;;589.30;2304.00;;;;;;5098860;28;20028;-84
2023/07/27 09:04:20;;;;;;;4.72;4.05;;;589.30;2304.00;;;;;;5098461;28;20032;-84
2023/07/27 09:06:49;;;;;;;5.00;4.10;;;;;;;;;;5098650;28;20020;-84
2023/07/27 09:09:24;;;;;;;7.72;3.80;;;614.40;2227.20;;;;;;5097091;28;20016;-85
2023/07/27 09:11:51;;;;;;;7.10;4.00;;;;;;;;;;5096558;28;20027;-84
2023/07/27 09:14:20;;;;;;;7.45;3.67;;;;;;;;;;5095774;28;20498;-83
2023/07/27 09:16:47;;;;;;;6.20;3.50;;;;;;;;;;5093882;28;20024;-85
2023/07/27 09:19:13;;;;;;;6.78;4.18;;;;;;;;;;5097761;28;20054;-82
2023/07/27 09:21:40;;;;;;;5.25;3.47;;;;;;;;;;5120516;28;20027;-86
2023/07/27 09:24:10;;;;;;;5.18;3.70;;;;;;;;;;5100906;28;20028;-84
2023/07/27 09:26:44;;;;;;;6.40;3.60;;;614.80;2124.80;;;;;;5097447;28;20024;-84
2023/07/27 09:29:10;;;;;;;6.75;3.75;;;614.80;2150.40;;;;;;5096499;28;20028;-86
2023/07/27 09:31:43;;;;;;;4.70;3.63;;;614.90;2124.80;;;;;;5096468;28;20403;-84
2023/07/27 09:34:09;;;;;;;6.72;3.60;;;615.10;2150.40;;;;;;5096185;28;20086;-84
2023/07/27 09:36:35;;;;;;;5.00;3.85;;;;;;;;;;5095819;28;20028;-83
2023/07/27 09:39:01;;;;;;;6.90;3.72;;;;;;;;;;5096330;28;20103;-83
2023/07/27 09:41:27;;;;;;;10.15;4.55;;;;;;;;;;5096479;28;20024;-83
2023/07/27 09:43:55;;;;;;;5.90;3.50;;;;;;;;;;5095845;28;20031;-84
2023/07/27 09:46:25;;;;;;;4.85;4.35;;;;;;;;;;5095989;28;20024;-85
2023/07/27 09:48:51;;;;;;;4.30;3.60;;;640.00;2099.20;;;;;;5096608;28;20024;-85
2023/07/27 09:51:18;;;;;;;6.05;3.88;;;615.30;2124.80;;;;;;5095162;28;20024;-86
2023/07/27 09:53:45;;;;;;;3.92;3.33;;;640.20;2124.80;;;;;;5095974;28;20034;-86
2023/07/27 09:56:15;;;;;;;5.97;3.80;;;640.20;2099.20;;;;;;5096052;28;20031;-82
2023/07/27 09:58:41;;;;;;;5.80;3.70;;;640.10;2099.20;;;;;;5093533;28;20032;-82
2023/07/27 10:01:10;;;;;;;7.13;4.60;;;640.00;2073.60;;;;;;5103718;28;20028;-83
2023/07/27 10:03:36;;;;;;;8.07;4.30;;;615.20;2099.20;;;;;;5103796;28;20023;-84
2023/07/27 10:06:03;;;;;;;10.57;4.50;;;640.10;2073.60;;;;;;5103217;28;20040;-83
2023/07/27 10:08:29;;;;;;;4.47;3.75;;;640.90;2048.00;;;;;;5104107;28;20118;-84
2023/07/27 10:10:59;;;;;;;7.20;3.65;;;640.40;2048.00;;;;;;5095221;28;20076;-83
2023/07/27 10:13:24;;;;;;;4.70;3.33;;;640.20;2048.00;;;;;;5094536;28;20035;-83
2023/07/27 10:16:01;;;;;;;6.20;4.10;;;640.50;2048.00;;;;;;5111472;28;20028;-84
2023/07/27 10:18:28;;;;;;;5.88;3.92;;;640.60;2048.00;;;;;;5096402;28;20020;-83
2023/07/27 10:21:13;;;;;;;9.85;4.10;;;665.80;2022.40;;;;;;5112017;28;20115;-83
2023/07/27 10:23:56;;;;;;;4.55;3.55;;;665.60;2048.00;;;;;;5112090;28;20020;-85
2023/07/27 10:26:41;;;;;;;5.90;3.28;;;640.80;1996.80;;;;;;5111587;28;20020;-84
2023/07/27 10:29:22;;;;;;;5.25;2.75;;;640.60;2022.40;;;;;;5111009;28;20020;-83
2023/07/27 10:32:06;;;;;;;4.88;3.10;;;665.60;2022.40;;;;;;5112091;28;20074;-84
2023/07/27 10:34:34;;;;;;;4.90;2.90;;;;;;;;;;5109396;28;20024;-85
2023/07/27 10:37:01;;;;;;;6.72;3.72;;;666.50;1996.80;;;;;;5111188;28;20128;-85
2023/07/27 10:39:47;;;;;;;4.43;2.80;;;666.50;1996.80;;;;;;5111682;28;20024;-85
2023/07/27 10:42:19;;;;;;;3.97;2.50;;;666.30;1971.20;;;;;;5110520;28;20054;-84
2023/07/27 10:44:46;;;;;;;4.45;2.67;;;666.00;1996.80;;;;;;5110881;28;20460;-86
2023/07/27 10:47:20;;;;;;;7.40;2.95;;;666.30;1996.80;;;;;;5110190;28;20032;-82
2023/07/27 10:49:48;;;;;;;3.97;2.28;;;666.50;1971.20;;;;;;5109568;28;20112;-85
2023/07/27 10:52:19;;;;;;;4.78;2.40;;;666.30;1945.60;;;;;;5077930;28;20395;-84
2023/07/27 10:54:46;;;;;;;7.13;3.10;;;666.50;1945.60;;;;;;5094955;28;20032;-84
2023/07/27 10:57:13;;;;;;;6.18;2.58;;;666.00;1971.20;;;;;;5093808;28;20115;-85
2023/07/27 10:59:43;;;;;;;4.82;2.40;;;666.20;1971.20;;;;;;5093427;28;20070;-86
2023/07/27 11:02:16;;;;;;;6.63;2.33;;;666.00;1945.60;;;;;;5093849;28;20038;-83
2023/07/27 11:04:42;;;;;;;5.28;2.20;;;665.80;1971.20;;;;;;5093450;28;20020;-84
2023/07/27 11:07:11;;;;;;;4.03;2.13;;;666.20;1971.20;;;;;;5093962;28;20032;-85
2023/07/27 11:09:41;;;;;;;5.97;2.17;;;666.50;1945.60;;;;;;5093342;28;20047;-84
2023/07/27 11:12:07;;;;;;;3.42;2.15;;;666.30;1945.60;;;;;;5093648;28;20035;-82
2023/07/27 11:14:33;;;;;;;4.50;2.22;;;691.20;1945.60;;;;;;5094391;28;20028;-83
2023/07/27 11:16:59;;;;;;;3.55;2.10;;;666.50;1894.40;;;;;;5093789;28;20024;-84
2023/07/27 11:19:26;;;;;;;7.55;1.70;;;;;;;;;;5093807;28;20021;-84
2023/07/27 11:21:54;;;;;;;4.70;1.80;;;;;;;;;;5093716;28;20452;-84
2023/07/27 11:24:20;;;;;;;4.50;1.90;;;;;;;;;;5095036;28;20028;-84
2023/07/27 11:26:46;;;;;;;6.65;2.35;;;691.70;1868.80;;;;;;5093308;28;20031;-84
2023/07/27 11:29:12;;;;;;;3.50;2.17;;;;;;;;;;5092858;28;20020;-83
2023/07/27 11:31:38;;;;;;;4.47;2.50;;;;;;;;;;5094433;28;20031;-83
2023/07/27 11:34:04;;;;;;;4.03;2.05;;;;;;;;;;5093368;28;20044;-82
2023/07/27 11:36:31;;;;;;;4.10;1.67;;;;;;;;;;5093301;28;20047;-82
2023/07/27 11:38:58;;;;;;;3.80;1.80;;;;;;;;;;5092880;28;20016;-82
2023/07/27 11:41:28;;;;;;;4.25;1.80;;;;;;;;;;5092980;28;20107;-81
2023/07/27 11:43:55;;;;;;;4.43;1.40;;;;;;;;;;5094296;28;20544;-85
2023/07/27 11:46:22;;;;;;;4.43;1.88;;;;;;;;;;5092653;28;20426;-82
2023/07/27 11:48:51;;;;;;;5.63;1.60;;;;;;;;;;5092939;28;20020;-81
2023/07/27 11:51:18;;;;;;;3.50;1.55;;;;;;;;;;5092038;28;20030;-83
2023/07/27 11:53:44;;;;;;;4.20;1.45;;;;;;;;;;5093903;28;20036;-81
2023/07/27 11:56:11;;;;;;;4.40;1.60;;;;;;;;;;5108964;28;20223;-80
2023/07/27 11:58:37;;;;;;;2.80;1.50;;;;;;;;;;5091961;28;20024;-82
2023/07/27 12:01:03;;;;;;;3.92;1.50;;;;;;;;;;5072515;28;20025;-82
2023/07/27 12:03:31;;;;;;;4.65;1.30;;;;;;;;;;5072460;28;20054;-82
2023/07/27 12:05:57;;;;;;;4.45;1.70;;;;;;;;;;5072399;28;20020;-81
2023/07/27 12:08:24;;;;;;;4.10;1.80;;;;;;;;;;5072699;28;20475;-81
2023/07/27 12:10:59;;;;;;;3.45;1.60;;;;;;;;;;5071649;28;20056;-78
2023/07/27 12:13:25;;;;;;;4.25;1.50;;;;;;;;;;5089041;28;20032;-81
2023/07/27 12:15:58;;;;;;;5.45;2.05;;;;;;;;;;5089375;28;20036;-79
2023/07/27 12:18:26;;;;;;;5.32;1.50;;;;;;;;;;5094825;28;20082;-81
2023/07/27 12:20:53;;;;;;;2.60;1.35;;;;;;;;;;5110900;28;20043;-81
2023/07/27 12:23:19;;;;;;;4.05;1.50;;;;;;;;;;5089552;28;20376;-80
2023/07/27 12:25:45;;;;;;;3.35;1.48;;;;;;;;;;5089043;28;20027;-82
2023/07/27 12:28:11;;;;;;;5.88;2.10;;;;;;;;;;5088919;28;20043;-80
2023/07/27 12:30:37;;;;;;;6.68;1.70;;;;;;;;;;5088491;28;20029;-82
2023/07/27 12:33:03;;;;;;;16.40;2.60;;;;;;;;;;5089074;28;20582;-80
2023/07/27 12:35:29;;;;;;;3.72;1.63;;;;;;;;;;5088695;28;20052;-80
2023/07/27 12:37:55;;;;;;;4.40;1.77;;;;;;;;;;5089064;28;20111;-83
2023/07/27 12:40:21;;;;;;;4.40;1.60;;;;;;;;;;5089767;28;20029;-82
2023/07/27 12:42:48;;;;;;;3.40;1.67;;;;;;;;;;5093829;28;20063;-81
2023/07/27 12:45:14;;;;;;;3.03;1.50;;;;;;;;;;5079311;28;20111;-81
2023/07/27 12:47:42;;;;;;;6.65;1.60;;;;;;;;;;5073668;28;20024;-80
2023/07/27 12:50:09;;;;;;;3.33;1.40;;;;;;;;;;5071324;28;20013;-79
2023/07/27 12:52:35;;;;;;;3.85;1.48;;;;;;;;;;5071823;28;20108;-80
2023/07/27 12:55:01;;;;;;;3.47;1.52;;;;;;;;;;5072888;28;20029;-82
2023/07/27 12:57:28;;;;;;;2.78;1.42;;;;;;;;;;5080600;28;20523;-80
2023/07/27 12:59:54;;;;;;;5.40;1.80;;;;;;;;;;5092104;28;20111;-82